Time;durP1;ratioP1;P1;durP2;ratioP2;P2;SDS_P1;SDS_P2;PMS_P1;PMS_P2;Temp;Humidity;BMP_temperature;BMP_pressure;BME280_temperature;BME280_humidity;BME280_pressure;Samples;Min_cycle;Max_cycle;Signal;HPM_P1;HPM_P2
2024/04/16 00:02:22;;;;;;;7.80;2.27;;;6.70;99.90;;;;;;5382352;26;19992;-50
2024/04/16 00:04:48;;;;;;;12.73;2.43;;;6.70;99.90;;;;;;5382706;26;20072;-49
2024/04/16 00:07:15;;;;;;;9.00;2.43;;;6.70;99.90;;;;;;5382439;26;20000;-51
2024/04/16 00:09:41;;;;;;;13.10;3.23;;;6.60;99.90;;;;;;5350747;26;20000;-47
2024/04/16 00:12:07;;;;;;;9.80;2.60;;;6.60;99.90;;;;;;5382355;26;20407;-47
2024/04/16 00:14:56;;;;;;;9.40;2.53;;;6.60;99.90;;;;;;5405172;21;20133;-48
2024/04/16 00:17:27;;;;;;;10.20;2.83;;;6.60;99.90;;;;;;5416110;26;20092;-51
2024/04/16 00:19:57;;;;;;;8.50;2.73;;;6.60;99.90;;;;;;5415926;26;19993;-47
2024/04/16 00:22:23;;;;;;;9.37;3.03;;;6.50;99.90;;;;;;5417195;26;20406;-45
2024/04/16 00:24:49;;;;;;;12.00;2.10;;;6.50;99.90;;;;;;5415690;26;20444;-45
2024/04/16 00:27:16;;;;;;;5.47;1.60;;;6.50;99.90;;;;;;5416057;26;20011;-48
2024/04/16 00:29:44;;;;;;;6.20;1.23;;;6.40;99.90;;;;;;5416919;26;20011;-45
2024/04/16 00:32:11;;;;;;;10.70;1.70;;;6.40;99.90;;;;;;5417929;26;20007;-46
2024/04/16 00:34:38;;;;;;;9.07;1.30;;;6.40;99.90;;;;;;5417843;26;19995;-49
2024/04/16 00:37:04;;;;;;;5.50;1.20;;;6.40;99.90;;;;;;5417432;26;20432;-46
2024/04/16 00:39:30;;;;;;;5.87;1.53;;;6.40;99.90;;;;;;5416734;26;20008;-45
2024/04/16 00:41:56;;;;;;;4.83;1.10;;;6.40;99.90;;;;;;5417376;26;20333;-46
2024/04/16 00:44:24;;;;;;;4.17;1.03;;;6.30;99.90;;;;;;5417483;26;20028;-50
2024/04/16 00:46:51;;;;;;;4.47;0.90;;;6.40;99.90;;;;;;5417381;26;20008;-47
2024/04/16 00:49:17;;;;;;;5.63;1.33;;;6.40;99.90;;;;;;5416389;26;20022;-50
2024/04/16 00:51:44;;;;;;;4.47;0.90;;;6.40;99.90;;;;;;5417480;26;20484;-49
2024/04/16 00:54:11;;;;;;;3.20;0.90;;;6.40;99.90;;;;;;5417333;26;19999;-49
2024/04/16 00:56:39;;;;;;;5.50;1.20;;;6.40;99.90;;;;;;5417234;26;20007;-50
2024/04/16 00:59:06;;;;;;;5.30;1.10;;;6.30;99.90;;;;;;5416508;26;20007;-50
2024/04/16 01:01:33;;;;;;;3.63;0.90;;;6.30;99.90;;;;;;5416040;26;19995;-50
2024/04/16 01:03:59;;;;;;;4.47;1.10;;;6.30;99.90;;;;;;5417410;26;20003;-47
2024/04/16 01:06:26;;;;;;;3.23;0.90;;;6.40;99.90;;;;;;5417332;26;20010;-50
2024/04/16 01:08:52;;;;;;;3.40;1.00;;;6.40;99.90;;;;;;5414554;26;20011;-51
2024/04/16 01:11:28;;;;;;;4.10;1.13;;;6.40;99.90;;;;;;5417432;26;20004;-45
2024/04/16 01:13:55;;;;;;;2.93;0.93;;;6.40;99.90;;;;;;5417028;26;20011;-48
2024/04/16 01:16:22;;;;;;;6.23;1.60;;;6.40;99.90;;;;;;5416874;26;20504;-50
2024/04/16 01:18:48;;;;;;;5.23;0.97;;;6.40;99.90;;;;;;5414540;26;19999;-46
2024/04/16 01:21:15;;;;;;;4.23;0.90;;;6.40;99.90;;;;;;5417224;26;20352;-47
2024/04/16 01:23:41;;;;;;;8.33;1.03;;;6.40;99.90;;;;;;5416999;26;20003;-49
2024/04/16 01:26:08;;;;;;;5.67;1.03;;;6.50;99.90;;;;;;5416382;26;20068;-47
2024/04/16 01:28:34;;;;;;;1.23;0.70;;;6.50;99.90;;;;;;5416100;26;20011;-47
2024/04/16 01:31:00;;;;;;;3.97;1.40;;;6.50;99.90;;;;;;5413717;26;19991;-50
2024/04/16 01:33:27;;;;;;;4.40;1.03;;;6.50;99.90;;;;;;5416836;26;19995;-46
2024/04/16 01:35:53;;;;;;;4.23;1.53;;;6.50;99.90;;;;;;5413471;26;20336;-50
2024/04/16 01:38:20;;;;;;;4.10;1.20;;;6.50;99.90;;;;;;5416089;26;19991;-50
2024/04/16 01:40:46;;;;;;;6.20;1.80;;;6.50;99.90;;;;;;5416561;26;20002;-46
2024/04/16 01:43:12;;;;;;;5.83;2.37;;;6.40;99.90;;;;;;5416616;26;20413;-48
2024/04/16 01:45:39;;;;;;;5.27;2.30;;;6.50;99.90;;;;;;5416612;26;20424;-47
2024/04/16 01:48:05;;;;;;;7.07;2.00;;;6.50;99.90;;;;;;5416155;26;20027;-51
2024/04/16 01:50:32;;;;;;;4.83;2.37;;;6.50;99.90;;;;;;5416404;26;20009;-51
2024/04/16 01:52:59;;;;;;;10.67;3.30;;;6.50;99.90;;;;;;5414969;26;20363;-51
2024/04/16 01:55:25;;;;;;;4.77;2.50;;;6.40;99.90;;;;;;5416738;26;19997;-50
2024/04/16 01:57:51;;;;;;;9.83;2.77;;;6.50;99.90;;;;;;5415769;26;19991;-49
2024/04/16 02:00:18;;;;;;;8.40;2.50;;;6.50;99.90;;;;;;5416514;26;19991;-50
2024/04/16 02:02:45;;;;;;;8.53;2.20;;;6.50;99.90;;;;;;5416439;26;20480;-51
2024/04/16 02:05:11;;;;;;;6.83;1.93;;;6.50;99.90;;;;;;5416498;26;20340;-51
2024/04/16 02:07:37;;;;;;;9.50;2.23;;;6.50;99.90;;;;;;5414959;26;19992;-51
2024/04/16 02:10:05;;;;;;;6.20;2.07;;;6.50;99.90;;;;;;5416251;26;19996;-50
2024/04/16 02:12:32;;;;;;;9.73;2.07;;;6.60;99.90;;;;;;5416368;26;20451;-49
2024/04/16 02:14:58;;;;;;;5.00;1.60;;;6.50;99.90;;;;;;5416045;26;20006;-50
2024/04/16 02:17:24;;;;;;;4.70;1.33;;;6.50;99.90;;;;;;5416216;26;20353;-51
2024/04/16 02:19:51;;;;;;;8.90;1.50;;;6.50;99.90;;;;;;5416434;26;20021;-50
2024/04/16 02:22:17;;;;;;;4.10;1.43;;;6.40;99.90;;;;;;5416249;26;20005;-53
2024/04/16 02:24:43;;;;;;;9.13;1.60;;;6.40;99.90;;;;;;5416108;26;20468;-51
2024/04/16 02:27:10;;;;;;;7.67;1.60;;;6.40;99.90;;;;;;5416228;26;20455;-47
2024/04/16 02:29:36;;;;;;;4.70;1.40;;;6.40;99.90;;;;;;5413811;26;20028;-50
2024/04/16 02:32:02;;;;;;;4.93;1.67;;;6.40;99.90;;;;;;5415961;26;20372;-49
2024/04/16 02:34:29;;;;;;;8.37;1.70;;;6.40;99.90;;;;;;5416108;26;20508;-46
2024/04/16 02:36:55;;;;;;;6.37;1.50;;;6.40;99.90;;;;;;5416241;26;20367;-46
2024/04/16 02:39:21;;;;;;;5.37;1.37;;;6.30;99.90;;;;;;5415459;26;20027;-51
2024/04/16 02:41:48;;;;;;;5.67;1.53;;;6.30;99.90;;;;;;5415752;26;20398;-46
2024/04/16 02:44:14;;;;;;;7.53;1.47;;;6.40;99.90;;;;;;5415810;26;20092;-47
2024/04/16 02:46:40;;;;;;;5.37;1.20;;;6.40;99.90;;;;;;5415033;26;20007;-46
2024/04/16 02:49:06;;;;;;;8.43;1.83;;;6.40;99.90;;;;;;5414698;26;20002;-47
2024/04/16 02:51:32;;;;;;;6.57;1.30;;;6.40;99.90;;;;;;5415832;26;19991;-47
2024/04/16 02:53:59;;;;;;;4.80;1.07;;;6.40;99.90;;;;;;5415764;26;19992;-47
2024/04/16 02:56:25;;;;;;;6.97;1.10;;;6.30;99.90;;;;;;5414886;26;20003;-46
2024/04/16 02:58:51;;;;;;;6.37;1.20;;;6.30;99.90;;;;;;5414647;26;19999;-46
2024/04/16 03:01:17;;;;;;;8.00;1.53;;;6.20;99.90;;;;;;5415304;26;20482;-47
2024/04/16 03:03:43;;;;;;;3.77;1.20;;;6.00;99.90;;;;;;5415358;26;20139;-47
2024/04/16 03:06:09;;;;;;;7.80;1.40;;;5.80;99.90;;;;;;5415453;26;19996;-46
2024/04/16 03:08:36;;;;;;;3.70;1.20;;;5.70;99.90;;;;;;5414556;26;20028;-46
2024/04/16 03:11:02;;;;;;;4.70;1.20;;;5.60;99.90;;;;;;5414521;26;19992;-47
2024/04/16 03:13:29;;;;;;;3.20;1.17;;;5.50;99.90;;;;;;5415379;26;20028;-46
2024/04/16 03:15:55;;;;;;;3.80;1.20;;;5.50;99.90;;;;;;5413309;26;20007;-45
2024/04/16 03:18:22;;;;;;;7.83;1.13;;;5.50;99.90;;;;;;5414064;26;20391;-49
2024/04/16 03:20:57;;;;;;;6.23;1.53;;;5.40;99.90;;;;;;5415082;26;20055;-47
2024/04/16 03:23:23;;;;;;;5.00;1.20;;;5.30;99.90;;;;;;5415155;26;19991;-47
2024/04/16 03:25:49;;;;;;;3.67;1.20;;;5.30;99.90;;;;;;5413210;26;19996;-45
2024/04/16 03:28:15;;;;;;;5.83;1.43;;;5.40;99.90;;;;;;5414278;26;20007;-46
2024/04/16 03:30:42;;;;;;;3.93;1.13;;;5.40;99.90;;;;;;5414953;26;19996;-45
2024/04/16 03:33:09;;;;;;;4.27;1.60;;;5.40;99.90;;;;;;5415494;26;19995;-50
2024/04/16 03:35:35;;;;;;;6.13;1.50;;;5.40;99.90;;;;;;5415636;26;20031;-46
2024/04/16 03:38:02;;;;;;;4.10;1.37;;;5.50;99.90;;;;;;5414526;26;19999;-45
2024/04/16 03:40:28;;;;;;;6.93;1.50;;;5.50;99.90;;;;;;5415539;26;20444;-47
2024/04/16 03:42:55;;;;;;;7.27;2.87;;;5.50;99.90;;;;;;5413572;26;19992;-48
2024/04/16 03:45:21;;;;;;;4.90;1.50;;;5.60;99.90;;;;;;5416400;26;20028;-45
2024/04/16 03:47:47;;;;;;;6.33;1.97;;;5.60;99.90;;;;;;5415172;26;20004;-45
2024/04/16 03:50:14;;;;;;;4.87;1.40;;;5.60;99.90;;;;;;5416497;26;19995;-47
2024/04/16 03:52:40;;;;;;;6.67;1.90;;;5.60;99.90;;;;;;5416127;26;20453;-47
2024/04/16 03:55:06;;;;;;;7.67;1.77;;;5.60;99.90;;;;;;5415652;26;20067;-50
2024/04/16 03:57:33;;;;;;;4.17;1.33;;;5.60;99.90;;;;;;5413809;26;19988;-47
2024/04/16 04:02:44;;;;;;;9.27;1.70;;;5.60;99.90;;;;;;5418037;26;20011;-50
2024/04/16 04:05:10;;;;;;;5.07;1.40;;;5.60;99.90;;;;;;5418022;26;20006;-50
2024/04/16 04:07:36;;;;;;;3.70;1.50;;;5.60;99.90;;;;;;5417262;26;19996;-47
2024/04/16 04:10:03;;;;;;;6.93;1.40;;;5.70;99.90;;;;;;5417896;26;20073;-47
2024/04/16 04:12:29;;;;;;;7.90;1.47;;;5.70;99.90;;;;;;5418094;26;20068;-50
2024/04/16 04:14:55;;;;;;;4.50;1.50;;;5.70;99.90;;;;;;5418198;26;19996;-49
2024/04/16 04:17:21;;;;;;;6.43;1.40;;;5.70;99.90;;;;;;5416346;26;20329;-50
2024/04/16 04:19:47;;;;;;;3.83;1.40;;;5.70;99.90;;;;;;5416342;26;20068;-50
2024/04/16 04:22:13;;;;;;;4.17;1.13;;;5.70;99.90;;;;;;5417775;26;19996;-46
2024/04/16 04:24:39;;;;;;;4.50;1.37;;;5.70;99.90;;;;;;5417821;26;20068;-46
2024/04/16 04:27:05;;;;;;;5.63;1.60;;;5.70;99.90;;;;;;5417738;26;19995;-45
2024/04/16 04:29:33;;;;;;;5.30;1.40;;;5.60;99.90;;;;;;5417277;26;20444;-46
2024/04/16 04:31:59;;;;;;;8.43;1.77;;;5.60;99.90;;;;;;5417928;26;20337;-45
2024/04/16 04:34:26;;;;;;;7.97;1.27;;;5.60;99.90;;;;;;5417970;26;20440;-46
2024/04/16 04:36:52;;;;;;;6.73;1.77;;;5.50;99.90;;;;;;5417893;26;20004;-46
2024/04/16 04:39:18;;;;;;;6.37;1.60;;;5.50;99.90;;;;;;5417085;26;20452;-48
2024/04/16 04:41:44;;;;;;;5.33;1.70;;;5.50;99.90;;;;;;5417581;26;20068;-48
2024/04/16 04:44:10;;;;;;;6.23;2.00;;;5.50;99.90;;;;;;5417711;26;20006;-46
2024/04/16 04:46:36;;;;;;;7.13;1.90;;;5.50;99.90;;;;;;5415874;26;20360;-46
2024/04/16 04:49:03;;;;;;;8.23;2.10;;;5.50;99.90;;;;;;5416632;26;20064;-46
2024/04/16 04:51:29;;;;;;;5.53;2.17;;;5.50;99.90;;;;;;5416980;26;20003;-48
2024/04/16 04:53:55;;;;;;;7.93;2.20;;;5.60;99.90;;;;;;5417319;26;19995;-47
2024/04/16 04:56:21;;;;;;;8.23;2.00;;;5.60;99.90;;;;;;5417370;26;20007;-49
2024/04/16 04:58:47;;;;;;;10.10;2.97;;;5.60;99.90;;;;;;5416474;26;20007;-51
2024/04/16 05:01:13;;;;;;;6.87;2.50;;;5.60;99.90;;;;;;5417159;26;20032;-49
2024/04/16 05:03:39;;;;;;;18.80;7.27;;;5.70;99.90;;;;;;5417265;26;20472;-51
2024/04/16 05:06:05;;;;;;;4.10;1.67;;;5.70;99.90;;;;;;5416708;26;19991;-50
2024/04/16 05:08:31;;;;;;;10.57;2.13;;;5.80;99.90;;;;;;5416240;26;20069;-50
2024/04/16 05:10:57;;;;;;;6.37;1.70;;;5.80;99.90;;;;;;5415181;26;20007;-48
2024/04/16 05:13:23;;;;;;;5.40;1.70;;;5.80;99.90;;;;;;5416876;26;20064;-51
2024/04/16 05:15:50;;;;;;;8.93;1.97;;;5.80;99.90;;;;;;5417016;26;19991;-47
2024/04/16 05:18:16;;;;;;;7.13;2.03;;;5.80;99.90;;;;;;5416526;26;19991;-51
2024/04/16 05:20:48;;;;;;;12.70;3.20;;;5.90;99.90;;;;;;5416227;26;19991;-50
2024/04/16 05:23:14;;;;;;;10.17;3.33;;;5.90;99.90;;;;;;5417097;26;20003;-50
2024/04/16 05:25:40;;;;;;;11.50;3.77;;;5.90;99.90;;;;;;5416643;26;20445;-48
2024/04/16 05:28:06;;;;;;;14.70;4.20;;;6.00;99.90;;;;;;5416148;26;20042;-51
2024/04/16 05:30:32;;;;;;;11.90;3.43;;;6.10;99.90;;;;;;5416609;26;20441;-49
2024/04/16 05:32:58;;;;;;;8.07;3.70;;;6.10;99.90;;;;;;5416849;26;19991;-51
2024/04/16 05:35:24;;;;;;;14.50;3.90;;;6.20;99.90;;;;;;5416772;26;20064;-49
2024/04/16 05:37:50;;;;;;;7.53;2.57;;;6.20;99.90;;;;;;5416114;26;19995;-51
2024/04/16 05:40:17;;;;;;;7.33;3.17;;;6.20;99.90;;;;;;5416633;26;20065;-52
2024/04/16 05:42:44;;;;;;;7.83;2.50;;;6.20;99.90;;;;;;5416660;26;19999;-51
2024/04/16 05:45:10;;;;;;;7.93;2.33;;;6.20;99.90;;;;;;5416793;26;19991;-50
2024/04/16 05:47:36;;;;;;;5.07;2.07;;;6.20;99.90;;;;;;5415364;26;19987;-51
2024/04/16 05:50:02;;;;;;;8.00;2.43;;;6.30;99.90;;;;;;5416536;26;19991;-48
2024/04/16 05:52:28;;;;;;;8.47;2.20;;;6.20;99.90;;;;;;5415917;26;19991;-51
2024/04/16 05:54:54;;;;;;;9.97;2.07;;;6.20;99.90;;;;;;5416655;26;19991;-46
2024/04/16 05:57:20;;;;;;;5.17;2.17;;;6.20;99.90;;;;;;5416451;26;20360;-48
2024/04/16 05:59:46;;;;;;;6.70;2.53;;;6.30;99.90;;;;;;5415510;26;20006;-53
2024/04/16 06:02:12;;;;;;;11.07;2.60;;;6.30;99.90;;;;;;5385121;26;19999;-49
2024/04/16 06:04:38;;;;;;;11.17;2.60;;;6.40;99.90;;;;;;5416488;26;19991;-54
2024/04/16 06:07:04;;;;;;;6.90;2.80;;;6.40;99.90;;;;;;5415988;26;20042;-51
2024/04/16 06:09:31;;;;;;;9.60;2.97;;;6.40;99.90;;;;;;5415578;26;20014;-49
2024/04/16 06:11:57;;;;;;;8.57;2.73;;;6.40;99.90;;;;;;5414351;26;20068;-50
2024/04/16 06:14:23;;;;;;;6.97;2.10;;;6.40;99.90;;;;;;5416275;26;20414;-52
2024/04/16 06:16:49;;;;;;;5.43;1.90;;;6.40;99.90;;;;;;5416164;26;20444;-53
2024/04/16 06:19:15;;;;;;;5.97;1.97;;;6.40;99.90;;;;;;5415223;26;19999;-48
2024/04/16 06:21:41;;;;;;;7.70;2.50;;;6.30;99.90;;;;;;5415045;26;20064;-50
2024/04/16 06:24:07;;;;;;;7.27;2.40;;;6.30;99.90;;;;;;5416188;26;19992;-47
2024/04/16 06:26:33;;;;;;;7.53;2.50;;;6.20;99.90;;;;;;5416462;26;19992;-47
2024/04/16 06:28:59;;;;;;;10.03;3.00;;;6.20;99.90;;;;;;5415397;26;20444;-48
2024/04/16 06:31:25;;;;;;;8.90;3.33;;;6.20;99.90;;;;;;5416332;26;19991;-47
2024/04/16 06:33:51;;;;;;;8.43;3.23;;;6.20;99.90;;;;;;5416225;26;20027;-47
2024/04/16 06:36:18;;;;;;;8.57;2.90;;;6.10;99.90;;;;;;5414432;26;19996;-47
2024/04/16 06:38:44;;;;;;;6.60;2.37;;;6.10;99.90;;;;;;5413618;26;20356;-48
2024/04/16 06:41:10;;;;;;;4.80;1.63;;;6.00;99.90;;;;;;5415901;26;20517;-49
2024/04/16 06:43:36;;;;;;;5.80;1.83;;;5.90;99.90;;;;;;5415169;26;19992;-48
2024/04/16 06:46:03;;;;;;;6.03;1.73;;;5.80;99.90;;;;;;5415836;26;20064;-50
2024/04/16 06:48:30;;;;;;;3.97;1.40;;;5.70;99.90;;;;;;5415040;26;19995;-47
2024/04/16 06:50:57;;;;;;;8.87;1.93;;;5.60;99.90;;;;;;5415554;26;20006;-51
2024/04/16 06:53:23;;;;;;;5.07;1.23;;;5.50;99.90;;;;;;5415682;26;20069;-50
2024/04/16 06:56:02;;;;;;;3.07;1.07;;;5.50;99.90;;;;;;5415633;26;19996;-49
2024/04/16 06:58:29;;;;;;;3.50;1.13;;;5.50;99.90;;;;;;5414712;26;19996;-50
2024/04/16 07:00:55;;;;;;;3.07;1.20;;;5.40;99.90;;;;;;5415735;26;19996;-46
2024/04/16 07:03:22;;;;;;;4.07;1.20;;;5.40;99.90;;;;;;5415574;26;19999;-46
2024/04/16 07:05:48;;;;;;;2.23;1.10;;;5.40;99.90;;;;;;5415405;26;20419;-47
2024/04/16 07:08:15;;;;;;;1.90;1.13;;;5.30;99.90;;;;;;5414644;26;20448;-46
2024/04/16 07:10:41;;;;;;;3.33;0.80;;;5.30;99.90;;;;;;5415687;26;20513;-47
2024/04/16 07:13:07;;;;;;;2.93;0.60;;;5.30;99.90;;;;;;5415510;26;19999;-47
2024/04/16 07:15:36;;;;;;;3.43;1.00;;;5.20;99.90;;;;;;5412651;26;20330;-46
2024/04/16 07:18:03;;;;;;;1.67;0.90;;;5.20;99.90;;;;;;5414454;26;19996;-49
2024/04/16 07:20:29;;;;;;;2.63;0.70;;;5.10;99.90;;;;;;5414920;26;19999;-50
2024/04/16 07:22:55;;;;;;;1.73;0.80;;;5.20;99.90;;;;;;5414840;26;19995;-48
2024/04/16 07:25:21;;;;;;;3.53;1.00;;;5.20;99.90;;;;;;5414917;26;20068;-51
2024/04/16 07:27:47;;;;;;;2.73;1.40;;;5.20;99.90;;;;;;5414341;26;19995;-52
2024/04/16 07:30:13;;;;;;;3.03;1.63;;;5.20;99.90;;;;;;5415177;26;20460;-48
2024/04/16 07:32:39;;;;;;;4.53;1.47;;;5.30;99.90;;;;;;5416610;26;19999;-50
2024/04/16 07:35:06;;;;;;;2.87;1.77;;;5.40;99.90;;;;;;5418730;26;20448;-47
2024/04/16 07:37:32;;;;;;;4.40;1.73;;;5.40;99.90;;;;;;5415877;26;20000;-49
2024/04/16 07:39:58;;;;;;;3.40;1.73;;;5.40;99.90;;;;;;5418365;26;20014;-49
2024/04/16 07:42:24;;;;;;;13.93;6.67;;;5.50;99.90;;;;;;5418608;26;20432;-46
2024/04/16 07:44:50;;;;;;;5.97;2.23;;;5.60;99.90;;;;;;5418474;26;20060;-47
2024/04/16 07:47:16;;;;;;;7.87;2.20;;;5.70;99.90;;;;;;5418499;26;19991;-46
2024/04/16 07:49:42;;;;;;;4.87;2.53;;;5.90;99.90;;;;;;5417531;26;20064;-50
2024/04/16 07:52:08;;;;;;;7.30;2.70;;;5.80;99.90;;;;;;5418111;26;20509;-48
2024/04/16 07:54:34;;;;;;;9.47;2.73;;;5.90;99.90;;;;;;5418227;26;20007;-50
2024/04/16 07:57:00;;;;;;;7.10;3.20;;;6.00;99.90;;;;;;5416622;26;20003;-48
2024/04/16 07:59:26;;;;;;;7.67;2.87;;;6.10;99.90;;;;;;5417489;26;20406;-46
2024/04/16 08:01:52;;;;;;;7.70;2.60;;;6.20;99.90;;;;;;5418035;26;20021;-48
2024/04/16 08:04:18;;;;;;;7.77;2.80;;;6.40;99.90;;;;;;5418025;26;19992;-48
2024/04/16 08:06:44;;;;;;;8.37;3.27;;;6.40;99.90;;;;;;5418001;26;20436;-51
2024/04/16 08:09:10;;;;;;;6.77;3.20;;;6.40;99.90;;;;;;5417204;26;20041;-49
2024/04/16 08:11:36;;;;;;;8.67;3.30;;;6.50;99.90;;;;;;5417922;26;19992;-50
2024/04/16 08:14:02;;;;;;;7.97;3.80;;;6.70;99.90;;;;;;5418104;26;19991;-46
2024/04/16 08:16:29;;;;;;;10.87;3.50;;;6.70;99.90;;;;;;5417917;26;19995;-49
2024/04/16 08:18:55;;;;;;;14.33;3.20;;;6.80;99.90;;;;;;5417415;26;19991;-46
2024/04/16 08:21:22;;;;;;;10.63;3.20;;;6.80;99.90;;;;;;5417752;26;20061;-50
2024/04/16 08:23:54;;;;;;;9.30;3.43;;;6.90;99.90;;;;;;5417801;26;20063;-49
2024/04/16 08:26:21;;;;;;;8.30;3.20;;;6.90;99.90;;;;;;5417912;26;20065;-47
2024/04/16 08:28:46;;;;;;;10.20;3.30;;;6.90;99.90;;;;;;5416956;26;20001;-51
2024/04/16 08:31:12;;;;;;;11.93;3.63;;;7.00;99.90;;;;;;5417589;26;20004;-49
2024/04/16 08:33:39;;;;;;;9.87;3.53;;;7.10;99.90;;;;;;5417635;26;19999;-52
2024/04/16 08:36:05;;;;;;;7.70;2.90;;;7.20;99.90;;;;;;5417568;26;20374;-47
2024/04/16 08:38:31;;;;;;;10.70;2.87;;;7.20;99.90;;;;;;5416979;26;20006;-47
2024/04/16 08:40:57;;;;;;;8.00;2.70;;;7.30;99.90;;;;;;5417485;26;20003;-51
2024/04/16 08:43:24;;;;;;;10.40;3.23;;;7.30;99.90;;;;;;5415446;26;20336;-46
2024/04/16 08:45:52;;;;;;;12.23;2.90;;;7.40;99.90;;;;;;5417234;26;19996;-47
2024/04/16 08:48:19;;;;;;;9.93;2.93;;;7.50;99.90;;;;;;5416798;26;19996;-50
2024/04/16 08:50:46;;;;;;;8.20;2.70;;;7.50;99.90;;;;;;5417297;26;20009;-49
2024/04/16 08:53:13;;;;;;;7.10;2.40;;;7.60;99.90;;;;;;5417282;26;20073;-48
2024/04/16 08:55:41;;;;;;;9.90;2.67;;;7.70;99.90;;;;;;5416547;26;20079;-46
2024/04/16 08:58:07;;;;;;;8.87;2.00;;;7.70;99.90;;;;;;5416792;26;19988;-51
2024/04/16 09:00:33;;;;;;;8.87;2.03;;;7.80;99.90;;;;;;5417204;26;20003;-52
2024/04/16 09:02:59;;;;;;;17.00;2.53;;;7.90;99.90;;;;;;5417095;26;20065;-51
2024/04/16 09:05:26;;;;;;;8.87;2.20;;;8.00;99.90;;;;;;5417230;26;20003;-50
2024/04/16 09:07:52;;;;;;;7.50;1.70;;;8.00;99.90;;;;;;5415765;26;20064;-51
2024/04/16 09:10:25;;;;;;;4.93;1.73;;;8.10;99.90;;;;;;5416103;26;20440;-51
2024/04/16 09:12:53;;;;;;;8.90;1.90;;;8.10;99.90;;;;;;5417232;26;20067;-49
2024/04/16 09:15:20;;;;;;;7.03;1.90;;;8.10;99.90;;;;;;5417242;26;20455;-47
2024/04/16 09:17:49;;;;;;;10.20;2.23;;;8.00;99.90;;;;;;5416231;26;19996;-47
2024/04/16 09:20:20;;;;;;;9.80;2.50;;;8.10;99.90;;;;;;5416881;26;19995;-46
2024/04/16 09:22:51;;;;;;;10.50;2.10;;;8.20;99.90;;;;;;5417271;26;20068;-51
2024/04/16 09:25:17;;;;;;;7.10;2.03;;;8.20;99.90;;;;;;5416995;26;20007;-47
2024/04/16 09:27:48;;;;;;;7.17;2.13;;;8.20;99.90;;;;;;5414401;26;19995;-52
2024/04/16 09:30:14;;;;;;;7.60;1.80;;;8.30;99.90;;;;;;5417233;26;20011;-50
2024/04/16 09:32:46;;;;;;;14.73;2.17;;;8.40;99.90;;;;;;5417227;26;20417;-49
2024/04/16 09:35:15;;;;;;;6.17;2.17;;;8.50;99.90;;;;;;5416840;26;19999;-50
2024/04/16 09:37:42;;;;;;;6.75;2.50;;;8.50;99.90;;;;;;5415890;26;19996;-52
2024/04/16 09:40:09;;;;;;;7.27;2.10;;;8.50;99.90;;;;;;5416606;26;20000;-48
2024/04/16 09:42:37;;;;;;;7.63;2.10;;;8.90;99.90;;;;;;5416554;26;20007;-51
2024/04/16 09:45:05;;;;;;;9.87;3.10;;;8.90;99.90;;;;;;5415844;26;20003;-48
2024/04/16 09:47:35;;;;;;;9.27;2.10;;;9.00;99.90;;;;;;5414428;26;20003;-47
2024/04/16 09:50:01;;;;;;;;;;;9.00;99.90;;;;;;5417213;26;19995;-51
2024/04/16 09:52:29;;;;;;;8.73;1.53;;;9.00;99.90;;;;;;5416671;26;19925;-52
2024/04/16 09:55:01;;;;;;;5.40;1.80;;;9.50;99.90;;;;;;5416240;26;19992;-48
2024/04/16 09:57:30;;;;;;;6.10;1.47;;;10.20;99.90;;;;;;5415462;26;20007;-52
2024/04/16 09:59:57;;;;;;;4.53;1.40;;;10.80;99.90;;;;;;5415459;26;20068;-52
2024/04/16 10:02:26;;;;;;;8.93;1.80;;;11.10;99.90;;;;;;5416127;26;20007;-46
2024/04/16 10:04:53;;;;;;;3.92;1.10;;;11.40;99.90;;;;;;5416817;26;19996;-47
2024/04/16 10:07:19;;;;;;;6.30;1.50;;;11.60;99.90;;;;;;5416568;26;20064;-46
2024/04/16 10:09:45;;;;;;;5.80;1.20;;;11.50;99.90;;;;;;5413598;26;20429;-49
2024/04/16 10:12:11;;;;;;;4.00;1.17;;;11.40;99.90;;;;;;5416529;26;20436;-46
2024/04/16 10:14:37;;;;;;;5.37;1.10;;;11.50;99.90;;;;;;5416528;26;20344;-50
2024/04/16 10:17:04;;;;;;;5.43;1.57;;;11.30;99.90;;;;;;5416439;26;20394;-47
2024/04/16 10:19:30;;;;;;;4.83;1.37;;;11.10;99.90;;;;;;5415538;26;19992;-47
2024/04/16 10:22:03;;;;;;;5.33;1.27;;;11.30;99.90;;;;;;5416158;26;19995;-46
2024/04/16 10:24:29;;;;;;;3.55;1.42;;;11.90;99.90;;;;;;5416231;26;20006;-47
2024/04/16 10:27:01;;;;;;;7.00;1.58;;;12.10;99.90;;;;;;5416342;26;20096;-50
2024/04/16 10:29:28;;;;;;;5.30;1.20;;;12.20;99.90;;;;;;5416078;26;20010;-45
2024/04/16 10:31:54;;;;;;;6.55;1.58;;;12.20;99.90;;;;;;5414179;26;20436;-49
2024/04/16 10:34:24;;;;;;;7.97;1.77;;;12.10;99.90;;;;;;5415947;26;20015;-45
2024/04/16 10:36:51;;;;;;;6.53;1.40;;;11.90;99.90;;;;;;5415788;26;20490;-46
2024/04/16 10:39:18;;;;;;;5.10;1.10;;;11.80;99.90;;;;;;5413648;26;20000;-47
2024/04/16 10:41:57;;;;;;;3.63;1.20;;;11.80;99.90;;;;;;5415855;26;20065;-50
2024/04/16 10:44:23;;;;;;;5.00;1.00;;;11.90;99.90;;;;;;5415923;26;19996;-50
2024/04/16 10:46:50;;;;;;;6.72;1.38;;;12.30;99.90;;;;;;5415828;26;20401;-50
2024/04/16 10:49:18;;;;;;;3.75;1.10;;;12.50;99.90;;;;;;5414564;26;20045;-51
2024/04/16 10:51:48;;;;;;;6.40;1.83;;;12.90;99.90;;;;;;5415530;26;19999;-49
2024/04/16 10:54:14;;;;;;;4.15;1.15;;;12.90;99.90;;;;;;5415757;26;19999;-48
2024/04/16 10:56:42;;;;;;;6.43;1.15;;;13.20;99.90;;;;;;5415603;26;19999;-49
2024/04/16 10:59:14;;;;;;;5.18;1.33;;;13.20;99.90;;;;;;5414657;26;19996;-51
2024/04/16 11:01:44;;;;;;;4.05;1.27;;;12.80;99.90;;;;;;5415848;26;19999;-46
2024/04/16 11:04:17;;;;;;;30.17;6.70;;;12.40;99.90;;;;;;5415334;26;20008;-49
2024/04/16 11:06:43;;;;;;;4.40;1.45;;;12.10;99.90;;;;;;5415954;26;19991;-51
2024/04/16 11:09:13;;;;;;;7.65;2.00;;;12.30;99.90;;;;;;5422465;26;20003;-49
2024/04/16 11:11:40;;;;;;;5.80;1.35;;;12.40;99.90;;;;;;5423451;26;20005;-51
2024/04/16 11:14:09;;;;;;;28.80;5.10;;;12.50;99.90;;;;;;5422490;26;19995;-51
2024/04/16 11:16:35;;;;;;;4.63;1.13;;;12.50;99.90;;;;;;5421772;26;20068;-50
2024/04/16 11:19:02;;;;;;;3.88;0.90;;;12.30;99.90;;;;;;5420439;26;20010;-47
2024/04/16 11:21:34;;;;;;;2.95;0.95;;;12.00;99.90;;;;;;5422760;26;19991;-49
2024/04/16 11:24:00;;;;;;;1.08;0.65;;;11.70;99.90;;;;;;5422957;26;20451;-48
2024/04/16 11:26:27;;;;;;;1.67;0.53;;;11.40;99.90;;;;;;5422830;26;19999;-48
2024/04/16 11:28:53;;;;;;;2.55;0.68;;;11.10;99.90;;;;;;5421875;26;20452;-50
2024/04/16 11:31:19;;;;;;;3.13;0.70;;;11.10;99.90;;;;;;5422583;26;20041;-49
2024/04/16 11:33:45;;;;;;;4.53;0.90;;;11.40;99.90;;;;;;5422500;26;20068;-50
2024/04/16 11:36:12;;;;;;;4.97;1.00;;;11.80;99.90;;;;;;5422650;26;20065;-48
2024/04/16 11:38:42;;;;;;;5.03;1.17;;;12.30;99.90;;;;;;5421959;26;20068;-50
2024/04/16 11:41:09;;;;;;;3.65;1.10;;;12.80;99.90;;;;;;5422451;26;20050;-50
2024/04/16 11:43:36;;;;;;;4.07;0.82;;;13.30;99.90;;;;;;5422368;26;20007;-51
2024/04/16 11:46:07;;;;;;;2.75;0.80;;;13.30;99.90;;;;;;5423319;26;20483;-47
2024/04/16 11:48:35;;;;;;;9.95;2.38;;;13.50;99.90;;;;;;5421687;26;20006;-52
2024/04/16 11:51:01;;;;;;;3.88;1.13;;;13.60;99.90;;;;;;5422504;26;19995;-49
2024/04/16 11:53:27;;;;;;;5.18;0.95;;;13.50;99.90;;;;;;5421766;26;19995;-46
2024/04/16 11:55:53;;;;;;;6.57;1.00;;;13.30;99.90;;;;;;5422310;26;19995;-50
2024/04/16 11:58:19;;;;;;;7.57;3.40;;;13.10;99.90;;;;;;5421595;26;20003;-47
2024/04/16 12:00:45;;;;;;;14.10;5.80;;;13.00;99.90;;;;;;5421885;26;20436;-50
2024/04/16 12:03:11;;;;;;;2.88;1.02;;;13.20;99.90;;;;;;5422109;26;20006;-46
2024/04/16 12:05:37;;;;;;;3.55;1.08;;;13.30;99.90;;;;;;5422307;26;20381;-47
2024/04/16 12:08:04;;;;;;;3.28;1.00;;;13.20;99.90;;;;;;5421514;26;19992;-47
2024/04/16 12:10:30;;;;;;;1.98;0.80;;;13.30;99.90;;;;;;5421924;26;20003;-48
2024/04/16 12:12:56;;;;;;;3.00;0.90;;;13.50;99.90;;;;;;5422046;26;19992;-47
2024/04/16 12:15:22;;;;;;;4.25;0.90;;;13.70;99.90;;;;;;5421803;26;20409;-46
2024/04/16 12:17:48;;;;;;;2.17;0.85;;;14.00;99.90;;;;;;5421128;26;19995;-49
2024/04/16 12:20:14;;;;;;;3.45;1.10;;;13.90;99.90;;;;;;5417150;26;19995;-46
2024/04/16 12:22:40;;;;;;;2.20;1.05;;;13.80;99.90;;;;;;5417850;26;20068;-46
2024/04/16 12:25:06;;;;;;;2.55;0.80;;;13.90;99.90;;;;;;5417864;26;19995;-46
2024/04/16 12:27:32;;;;;;;2.67;0.50;;;14.10;99.90;;;;;;5417087;26;20097;-46
2024/04/16 12:30:00;;;;;;;2.05;0.50;;;13.90;99.90;;;;;;5417947;26;20336;-47
2024/04/16 12:32:26;;;;;;;4.57;0.88;;;13.50;99.90;;;;;;5417812;26;19992;-47
2024/04/16 12:34:52;;;;;;;1.65;0.70;;;13.30;99.90;;;;;;5416037;26;19995;-46
2024/04/16 12:37:18;;;;;;;4.88;1.15;;;13.20;99.90;;;;;;5417722;26;19992;-46
2024/04/16 12:39:44;;;;;;;1.67;0.60;;;13.30;99.90;;;;;;5416828;26;20045;-50
2024/04/16 12:42:10;;;;;;;3.88;0.90;;;13.30;99.90;;;;;;5415867;26;19996;-46
2024/04/16 12:44:36;;;;;;;3.28;1.05;;;13.30;99.90;;;;;;5417532;26;20073;-46
2024/04/16 12:47:02;;;;;;;5.57;1.42;;;13.60;99.90;;;;;;5417868;26;20456;-46
2024/04/16 12:49:28;;;;;;;2.38;0.73;;;13.80;99.90;;;;;;5415080;26;19988;-52
2024/04/16 12:51:54;;;;;;;3.15;0.50;;;13.90;99.90;;;;;;5417828;26;20337;-50
2024/04/16 12:54:20;;;;;;;2.40;0.90;;;13.90;99.90;;;;;;5417514;26;19995;-51